sensor_id;sensor_type;location;lat;lon;timestamp;P1;durP1;ratioP1;P2;durP2;ratioP2
74941;SDS011;63506;49.346;8.798;2023-08-06T00:00:56;3.70;;;3.15;;
74941;SDS011;63506;49.346;8.798;2023-08-06T00:03:25;3.47;;;3.17;;
74941;SDS011;63506;49.346;8.798;2023-08-06T00:05:52;4.32;;;3.92;;
74941;SDS011;63506;49.346;8.798;2023-08-06T00:08:20;5.95;;;3.42;;
74941;SDS011;63506;49.346;8.798;2023-08-06T00:10:47;7.38;;;3.65;;
74941;SDS011;63506;49.346;8.798;2023-08-06T00:13:16;5.85;;;3.15;;
74941;SDS011;63506;49.346;8.798;2023-08-06T00:15:43;3.45;;;3.15;;
74941;SDS011;63506;49.346;8.798;2023-08-06T00:18:11;4.93;;;3.50;;
74941;SDS011;63506;49.346;8.798;2023-08-06T00:20:40;3.60;;;3.13;;
74941;SDS011;63506;49.346;8.798;2023-08-06T00:23:08;6.05;;;4.28;;
74941;SDS011;63506;49.346;8.798;2023-08-06T00:25:36;6.43;;;3.33;;
74941;SDS011;63506;49.346;8.798;2023-08-06T00:28:03;4.85;;;3.88;;
74941;SDS011;63506;49.346;8.798;2023-08-06T00:30:32;7.75;;;3.67;;
74941;SDS011;63506;49.346;8.798;2023-08-06T00:33:00;5.63;;;3.97;;
74941;SDS011;63506;49.346;8.798;2023-08-06T00:35:27;5.03;;;3.65;;
74941;SDS011;63506;49.346;8.798;2023-08-06T00:37:55;4.63;;;4.22;;
74941;SDS011;63506;49.346;8.798;2023-08-06T00:40:22;7.00;;;4.18;;
74941;SDS011;63506;49.346;8.798;2023-08-06T00:42:50;4.18;;;3.78;;
74941;SDS011;63506;49.346;8.798;2023-08-06T00:45:17;5.75;;;3.00;;
74941;SDS011;63506;49.346;8.798;2023-08-06T00:47:46;4.93;;;4.18;;
74941;SDS011;63506;49.346;8.798;2023-08-06T00:50:13;4.38;;;3.42;;
74941;SDS011;63506;49.346;8.798;2023-08-06T00:52:42;4.07;;;3.50;;
74941;SDS011;63506;49.346;8.798;2023-08-06T00:55:09;5.97;;;3.80;;
74941;SDS011;63506;49.346;8.798;2023-08-06T00:57:37;4.70;;;3.95;;
74941;SDS011;63506;49.346;8.798;2023-08-06T01:00:05;6.75;;;4.18;;
74941;SDS011;63506;49.346;8.798;2023-08-06T01:02:33;4.13;;;3.72;;
74941;SDS011;63506;49.346;8.798;2023-08-06T01:05:02;4.53;;;4.00;;
74941;SDS011;63506;49.346;8.798;2023-08-06T01:07:33;5.65;;;3.88;;
74941;SDS011;63506;49.346;8.798;2023-08-06T01:10:15;6.25;;;4.32;;
74941;SDS011;63506;49.346;8.798;2023-08-06T01:12:48;6.38;;;3.45;;
74941;SDS011;63506;49.346;8.798;2023-08-06T01:15:20;4.03;;;3.28;;
74941;SDS011;63506;49.346;8.798;2023-08-06T01:17:49;3.63;;;3.30;;
74941;SDS011;63506;49.346;8.798;2023-08-06T01:20:18;4.30;;;3.55;;
74941;SDS011;63506;49.346;8.798;2023-08-06T01:22:47;4.85;;;3.40;;
74941;SDS011;63506;49.346;8.798;2023-08-06T01:25:15;8.35;;;3.58;;
74941;SDS011;63506;49.346;8.798;2023-08-06T01:27:44;4.32;;;3.60;;
74941;SDS011;63506;49.346;8.798;2023-08-06T01:30:15;4.90;;;2.70;;
74941;SDS011;63506;49.346;8.798;2023-08-06T01:32:46;4.05;;;3.35;;
74941;SDS011;63506;49.346;8.798;2023-08-06T01:35:17;3.67;;;3.17;;
74941;SDS011;63506;49.346;8.798;2023-08-06T01:37:47;3.78;;;3.17;;
74941;SDS011;63506;49.346;8.798;2023-08-06T01:40:15;3.70;;;3.40;;
74941;SDS011;63506;49.346;8.798;2023-08-06T01:42:44;4.00;;;3.33;;
74941;SDS011;63506;49.346;8.798;2023-08-06T01:45:13;4.45;;;3.97;;
74941;SDS011;63506;49.346;8.798;2023-08-06T01:47:40;6.35;;;4.03;;
74941;SDS011;63506;49.346;8.798;2023-08-06T01:50:08;5.63;;;3.90;;
74941;SDS011;63506;49.346;8.798;2023-08-06T01:52:38;3.92;;;3.63;;
74941;SDS011;63506;49.346;8.798;2023-08-06T01:55:14;3.53;;;3.17;;
74941;SDS011;63506;49.346;8.798;2023-08-06T01:57:45;3.92;;;3.53;;
74941;SDS011;63506;49.346;8.798;2023-08-06T02:00:13;4.75;;;3.53;;
74941;SDS011;63506;49.346;8.798;2023-08-06T02:02:41;4.03;;;3.05;;
74941;SDS011;63506;49.346;8.798;2023-08-06T02:05:09;6.60;;;3.70;;
74941;SDS011;63506;49.346;8.798;2023-08-06T02:07:39;5.43;;;3.60;;
74941;SDS011;63506;49.346;8.798;2023-08-06T02:10:07;5.40;;;3.78;;
74941;SDS011;63506;49.346;8.798;2023-08-06T02:12:36;3.50;;;3.20;;
74941;SDS011;63506;49.346;8.798;2023-08-06T02:15:04;5.57;;;3.85;;
74941;SDS011;63506;49.346;8.798;2023-08-06T02:17:32;8.43;;;4.10;;
74941;SDS011;63506;49.346;8.798;2023-08-06T02:20:00;4.22;;;3.83;;
74941;SDS011;63506;49.346;8.798;2023-08-06T02:22:28;4.18;;;3.47;;
74941;SDS011;63506;49.346;8.798;2023-08-06T02:24:55;5.88;;;3.88;;
74941;SDS011;63506;49.346;8.798;2023-08-06T02:27:22;5.80;;;4.53;;
74941;SDS011;63506;49.346;8.798;2023-08-06T02:29:55;4.70;;;4.18;;
74941;SDS011;63506;49.346;8.798;2023-08-06T02:32:22;5.32;;;3.85;;
74941;SDS011;63506;49.346;8.798;2023-08-06T02:34:51;4.95;;;3.88;;
74941;SDS011;63506;49.346;8.798;2023-08-06T02:37:19;3.97;;;3.28;;
74941;SDS011;63506;49.346;8.798;2023-08-06T03:02:16;3.55;;;2.90;;
74941;SDS011;63506;49.346;8.798;2023-08-06T03:04:54;4.97;;;4.57;;
74941;SDS011;63506;49.346;8.798;2023-08-06T03:07:25;7.00;;;5.68;;
74941;SDS011;63506;49.346;8.798;2023-08-06T03:09:58;4.13;;;3.63;;
74941;SDS011;63506;49.346;8.798;2023-08-06T03:12:27;3.70;;;3.22;;
74941;SDS011;63506;49.346;8.798;2023-08-06T03:14:54;6.63;;;3.38;;
74941;SDS011;63506;49.346;8.798;2023-08-06T03:17:23;5.07;;;3.50;;
74941;SDS011;63506;49.346;8.798;2023-08-06T03:19:53;2.00;;;1.80;;
74941;SDS011;63506;49.346;8.798;2023-08-06T03:22:22;4.88;;;2.95;;
74941;SDS011;63506;49.346;8.798;2023-08-06T03:24:50;3.60;;;2.50;;
74941;SDS011;63506;49.346;8.798;2023-08-06T03:27:18;2.63;;;2.00;;
74941;SDS011;63506;49.346;8.798;2023-08-06T03:29:48;5.53;;;2.58;;
74941;SDS011;63506;49.346;8.798;2023-08-06T03:32:17;8.07;;;2.33;;
74941;SDS011;63506;49.346;8.798;2023-08-06T03:34:50;2.83;;;2.15;;
74941;SDS011;63506;49.346;8.798;2023-08-06T03:37:19;5.78;;;2.65;;
74941;SDS011;63506;49.346;8.798;2023-08-06T03:39:47;4.38;;;2.53;;
74941;SDS011;63506;49.346;8.798;2023-08-06T03:42:15;3.03;;;1.67;;
74941;SDS011;63506;49.346;8.798;2023-08-06T03:44:44;2.58;;;1.75;;
74941;SDS011;63506;49.346;8.798;2023-08-06T03:47:16;2.95;;;2.22;;
74941;SDS011;63506;49.346;8.798;2023-08-06T03:49:45;3.53;;;2.15;;
74941;SDS011;63506;49.346;8.798;2023-08-06T03:52:14;5.03;;;2.45;;
74941;SDS011;63506;49.346;8.798;2023-08-06T03:57:14;8.10;;;2.78;;
74941;SDS011;63506;49.346;8.798;2023-08-06T03:59:41;4.05;;;2.38;;
74941;SDS011;63506;49.346;8.798;2023-08-06T04:02:09;3.08;;;2.20;;
74941;SDS011;63506;49.346;8.798;2023-08-06T04:04:36;3.72;;;2.35;;
74941;SDS011;63506;49.346;8.798;2023-08-06T04:07:04;6.82;;;2.67;;
74941;SDS011;63506;49.346;8.798;2023-08-06T04:09:33;2.83;;;2.42;;
74941;SDS011;63506;49.346;8.798;2023-08-06T04:12:05;2.67;;;1.92;;
74941;SDS011;63506;49.346;8.798;2023-08-06T04:14:33;5.97;;;2.33;;
74941;SDS011;63506;49.346;8.798;2023-08-06T04:17:04;3.70;;;2.50;;
74941;SDS011;63506;49.346;8.798;2023-08-06T04:19:31;6.82;;;2.58;;
74941;SDS011;63506;49.346;8.798;2023-08-06T04:22:02;3.03;;;1.92;;
74941;SDS011;63506;49.346;8.798;2023-08-06T04:24:29;3.47;;;1.90;;
74941;SDS011;63506;49.346;8.798;2023-08-06T04:27:03;1.80;;;1.40;;
74941;SDS011;63506;49.346;8.798;2023-08-06T04:29:31;2.30;;;1.55;;
74941;SDS011;63506;49.346;8.798;2023-08-06T04:31:58;4.80;;;1.52;;
74941;SDS011;63506;49.346;8.798;2023-08-06T04:34:26;1.52;;;1.00;;
74941;SDS011;63506;49.346;8.798;2023-08-06T04:36:53;2.08;;;1.35;;
74941;SDS011;63506;49.346;8.798;2023-08-06T04:39:21;2.30;;;1.58;;
74941;SDS011;63506;49.346;8.798;2023-08-06T04:41:51;2.67;;;1.45;;
74941;SDS011;63506;49.346;8.798;2023-08-06T04:44:20;2.28;;;1.13;;
74941;SDS011;63506;49.346;8.798;2023-08-06T04:46:48;1.50;;;1.10;;
74941;SDS011;63506;49.346;8.798;2023-08-06T04:49:17;4.05;;;1.73;;
74941;SDS011;63506;49.346;8.798;2023-08-06T04:51:44;4.50;;;1.63;;
74941;SDS011;63506;49.346;8.798;2023-08-06T04:54:11;3.58;;;1.75;;
74941;SDS011;63506;49.346;8.798;2023-08-06T04:56:41;2.50;;;1.35;;
74941;SDS011;63506;49.346;8.798;2023-08-06T04:59:10;2.92;;;1.35;;
74941;SDS011;63506;49.346;8.798;2023-08-06T05:01:39;5.47;;;1.55;;
74941;SDS011;63506;49.346;8.798;2023-08-06T05:04:06;2.85;;;1.73;;
74941;SDS011;63506;49.346;8.798;2023-08-06T05:06:33;3.13;;;1.55;;
74941;SDS011;63506;49.346;8.798;2023-08-06T05:09:07;9.20;;;1.63;;
74941;SDS011;63506;49.346;8.798;2023-08-06T05:11:39;2.22;;;1.05;;
74941;SDS011;63506;49.346;8.798;2023-08-06T05:14:08;15.98;;;1.52;;
74941;SDS011;63506;49.346;8.798;2023-08-06T05:16:40;2.65;;;1.85;;
74941;SDS011;63506;49.346;8.798;2023-08-06T05:19:15;3.10;;;0.98;;
74941;SDS011;63506;49.346;8.798;2023-08-06T05:21:47;1.98;;;0.82;;
74941;SDS011;63506;49.346;8.798;2023-08-06T05:24:39;2.30;;;1.35;;
74941;SDS011;63506;49.346;8.798;2023-08-06T05:30:28;4.78;;;1.90;;
74941;SDS011;63506;49.346;8.798;2023-08-06T05:33:02;1.55;;;1.15;;
74941;SDS011;63506;49.346;8.798;2023-08-06T05:35:35;3.58;;;1.20;;
74941;SDS011;63506;49.346;8.798;2023-08-06T05:38:06;4.32;;;1.92;;
74941;SDS011;63506;49.346;8.798;2023-08-06T05:40:33;1.33;;;0.77;;
74941;SDS011;63506;49.346;8.798;2023-08-06T05:43:01;1.98;;;1.10;;
74941;SDS011;63506;49.346;8.798;2023-08-06T05:45:28;2.75;;;1.73;;
74941;SDS011;63506;49.346;8.798;2023-08-06T06:42:44;1.58;;;0.70;;
74941;SDS011;63506;49.346;8.798;2023-08-06T06:45:12;1.52;;;0.73;;
74941;SDS011;63506;49.346;8.798;2023-08-06T06:47:40;1.00;;;0.90;;
74941;SDS011;63506;49.346;8.798;2023-08-06T06:50:08;0.55;;;0.47;;
74941;SDS011;63506;49.346;8.798;2023-08-06T06:52:36;1.30;;;1.10;;
74941;SDS011;63506;49.346;8.798;2023-08-06T06:55:04;1.95;;;0.70;;
74941;SDS011;63506;49.346;8.798;2023-08-06T06:57:34;1.38;;;0.65;;
74941;SDS011;63506;49.346;8.798;2023-08-06T07:00:03;1.90;;;0.93;;
74941;SDS011;63506;49.346;8.798;2023-08-06T07:02:33;3.05;;;1.02;;
74941;SDS011;63506;49.346;8.798;2023-08-06T07:05:00;4.10;;;0.80;;
74941;SDS011;63506;49.346;8.798;2023-08-06T07:07:28;1.13;;;0.63;;
74941;SDS011;63506;49.346;8.798;2023-08-06T07:09:55;3.47;;;0.80;;
74941;SDS011;63506;49.346;8.798;2023-08-06T07:12:25;1.10;;;0.82;;
74941;SDS011;63506;49.346;8.798;2023-08-06T07:14:52;1.60;;;0.70;;
74941;SDS011;63506;49.346;8.798;2023-08-06T07:17:21;2.80;;;0.57;;
74941;SDS011;63506;49.346;8.798;2023-08-06T07:19:49;0.80;;;0.57;;
74941;SDS011;63506;49.346;8.798;2023-08-06T07:22:18;1.75;;;0.70;;
74941;SDS011;63506;49.346;8.798;2023-08-06T07:24:48;0.60;;;0.43;;
74941;SDS011;63506;49.346;8.798;2023-08-06T07:27:15;0.65;;;0.50;;
74941;SDS011;63506;49.346;8.798;2023-08-06T07:29:43;0.65;;;0.47;;
74941;SDS011;63506;49.346;8.798;2023-08-06T07:32:10;3.78;;;2.53;;
74941;SDS011;63506;49.346;8.798;2023-08-06T07:34:41;2.88;;;0.50;;
74941;SDS011;63506;49.346;8.798;2023-08-06T07:37:09;1.15;;;0.55;;
74941;SDS011;63506;49.346;8.798;2023-08-06T07:39:38;0.47;;;0.47;;
74941;SDS011;63506;49.346;8.798;2023-08-06T07:42:07;3.13;;;0.88;;
74941;SDS011;63506;49.346;8.798;2023-08-06T07:44:37;0.75;;;0.60;;
74941;SDS011;63506;49.346;8.798;2023-08-06T07:47:05;1.13;;;0.57;;
74941;SDS011;63506;49.346;8.798;2023-08-06T07:49:32;1.85;;;0.50;;
74941;SDS011;63506;49.346;8.798;2023-08-06T07:52:01;1.25;;;0.40;;
74941;SDS011;63506;49.346;8.798;2023-08-06T07:54:29;2.47;;;0.60;;
74941;SDS011;63506;49.346;8.798;2023-08-06T07:56:56;0.68;;;0.50;;
74941;SDS011;63506;49.346;8.798;2023-08-06T07:59:26;2.17;;;0.77;;
74941;SDS011;63506;49.346;8.798;2023-08-06T08:01:53;2.50;;;0.80;;
74941;SDS011;63506;49.346;8.798;2023-08-06T08:04:20;2.47;;;0.88;;
74941;SDS011;63506;49.346;8.798;2023-08-06T08:06:48;0.68;;;0.43;;
74941;SDS011;63506;49.346;8.798;2023-08-06T08:09:19;2.08;;;0.85;;
74941;SDS011;63506;49.346;8.798;2023-08-06T08:11:47;1.08;;;0.93;;
74941;SDS011;63506;49.346;8.798;2023-08-06T08:14:14;1.83;;;0.50;;
74941;SDS011;63506;49.346;8.798;2023-08-06T08:16:42;0.73;;;0.50;;
74941;SDS011;63506;49.346;8.798;2023-08-06T08:19:12;1.65;;;0.65;;
74941;SDS011;63506;49.346;8.798;2023-08-06T08:21:39;0.70;;;0.63;;
74941;SDS011;63506;49.346;8.798;2023-08-06T08:24:09;0.60;;;0.50;;
74941;SDS011;63506;49.346;8.798;2023-08-06T08:26:38;2.28;;;0.80;;
74941;SDS011;63506;49.346;8.798;2023-08-06T08:29:08;0.75;;;0.73;;
74941;SDS011;63506;49.346;8.798;2023-08-06T08:31:35;2.05;;;0.43;;
74941;SDS011;63506;49.346;8.798;2023-08-06T08:34:05;2.92;;;0.90;;
74941;SDS011;63506;49.346;8.798;2023-08-06T08:36:35;3.30;;;1.42;;
74941;SDS011;63506;49.346;8.798;2023-08-06T08:39:02;2.83;;;1.52;;
74941;SDS011;63506;49.346;8.798;2023-08-06T08:41:33;0.70;;;0.40;;
74941;SDS011;63506;49.346;8.798;2023-08-06T08:44:05;11.00;;;0.80;;
74941;SDS011;63506;49.346;8.798;2023-08-06T08:46:35;0.77;;;0.60;;
74941;SDS011;63506;49.346;8.798;2023-08-06T08:49:04;1.25;;;0.70;;
74941;SDS011;63506;49.346;8.798;2023-08-06T08:51:32;0.98;;;0.70;;
74941;SDS011;63506;49.346;8.798;2023-08-06T08:54:02;1.95;;;0.68;;
74941;SDS011;63506;49.346;8.798;2023-08-06T08:56:31;0.35;;;0.32;;
74941;SDS011;63506;49.346;8.798;2023-08-06T08:58:58;0.45;;;0.45;;
74941;SDS011;63506;49.346;8.798;2023-08-06T09:01:27;0.50;;;0.25;;
74941;SDS011;63506;49.346;8.798;2023-08-06T09:03:57;0.43;;;0.20;;
74941;SDS011;63506;49.346;8.798;2023-08-06T09:06:25;0.70;;;0.60;;
74941;SDS011;63506;49.346;8.798;2023-08-06T09:08:56;1.55;;;0.50;;
74941;SDS011;63506;49.346;8.798;2023-08-06T09:11:29;0.60;;;0.43;;
74941;SDS011;63506;49.346;8.798;2023-08-06T09:14:17;0.20;;;0.20;;
74941;SDS011;63506;49.346;8.798;2023-08-06T09:16:46;4.80;;;0.40;;
74941;SDS011;63506;49.346;8.798;2023-08-06T09:19:13;1.08;;;0.20;;
74941;SDS011;63506;49.346;8.798;2023-08-06T09:21:45;0.10;;;0.10;;
74941;SDS011;63506;49.346;8.798;2023-08-06T09:24:15;0.93;;;0.30;;
74941;SDS011;63506;49.346;8.798;2023-08-06T09:26:43;0.30;;;0.22;;
74941;SDS011;63506;49.346;8.798;2023-08-06T09:29:13;0.20;;;0.20;;
74941;SDS011;63506;49.346;8.798;2023-08-06T09:31:44;0.38;;;0.25;;
74941;SDS011;63506;49.346;8.798;2023-08-06T09:34:15;0.38;;;0.35;;
74941;SDS011;63506;49.346;8.798;2023-08-06T09:36:46;0.40;;;0.40;;
74941;SDS011;63506;49.346;8.798;2023-08-06T09:39:15;0.40;;;0.40;;
74941;SDS011;63506;49.346;8.798;2023-08-06T09:41:43;1.02;;;0.30;;
74941;SDS011;63506;49.346;8.798;2023-08-06T09:44:16;0.45;;;0.38;;
74941;SDS011;63506;49.346;8.798;2023-08-06T09:46:49;0.50;;;0.40;;
74941;SDS011;63506;49.346;8.798;2023-08-06T09:49:18;0.75;;;0.40;;
74941;SDS011;63506;49.346;8.798;2023-08-06T09:51:46;1.25;;;0.40;;
74941;SDS011;63506;49.346;8.798;2023-08-06T09:54:19;0.30;;;0.30;;
74941;SDS011;63506;49.346;8.798;2023-08-06T09:56:49;0.40;;;0.40;;
74941;SDS011;63506;49.346;8.798;2023-08-06T09:59:22;0.40;;;0.30;;
74941;SDS011;63506;49.346;8.798;2023-08-06T10:01:51;0.40;;;0.38;;
74941;SDS011;63506;49.346;8.798;2023-08-06T10:04:21;0.30;;;0.20;;
74941;SDS011;63506;49.346;8.798;2023-08-06T10:06:50;0.55;;;0.30;;
74941;SDS011;63506;49.346;8.798;2023-08-06T10:09:18;0.75;;;0.40;;
74941;SDS011;63506;49.346;8.798;2023-08-06T10:11:49;0.20;;;0.20;;
74941;SDS011;63506;49.346;8.798;2023-08-06T10:14:25;0.50;;;0.40;;
74941;SDS011;63506;49.346;8.798;2023-08-06T10:19:23;0.88;;;0.28;;
74941;SDS011;63506;49.346;8.798;2023-08-06T10:22:09;0.45;;;0.43;;
74941;SDS011;63506;49.346;8.798;2023-08-06T10:24:48;0.40;;;0.30;;
74941;SDS011;63506;49.346;8.798;2023-08-06T10:27:22;2.30;;;0.40;;
74941;SDS011;63506;49.346;8.798;2023-08-06T10:29:50;0.25;;;0.25;;
74941;SDS011;63506;49.346;8.798;2023-08-06T10:32:19;1.00;;;0.30;;
74941;SDS011;63506;49.346;8.798;2023-08-06T10:34:53;0.40;;;0.40;;
74941;SDS011;63506;49.346;8.798;2023-08-06T10:37:23;0.55;;;0.55;;
74941;SDS011;63506;49.346;8.798;2023-08-06T10:39:53;0.50;;;0.47;;
74941;SDS011;63506;49.346;8.798;2023-08-06T10:42:26;0.30;;;0.30;;
74941;SDS011;63506;49.346;8.798;2023-08-06T10:47:43;0.65;;;0.40;;
74941;SDS011;63506;49.346;8.798;2023-08-06T10:50:13;0.40;;;0.20;;
74941;SDS011;63506;49.346;8.798;2023-08-06T10:52:45;0.68;;;0.60;;
74941;SDS011;63506;49.346;8.798;2023-08-06T10:55:13;0.35;;;0.32;;
74941;SDS011;63506;49.346;8.798;2023-08-06T10:57:40;0.80;;;0.50;;
74941;SDS011;63506;49.346;8.798;2023-08-06T11:00:08;0.40;;;0.35;;
74941;SDS011;63506;49.346;8.798;2023-08-06T11:02:39;0.57;;;0.40;;
74941;SDS011;63506;49.346;8.798;2023-08-06T11:05:08;0.55;;;0.40;;
74941;SDS011;63506;49.346;8.798;2023-08-06T11:07:39;0.43;;;0.40;;
74941;SDS011;63506;49.346;8.798;2023-08-06T11:10:10;0.70;;;0.52;;
74941;SDS011;63506;49.346;8.798;2023-08-06T11:12:38;0.35;;;0.35;;
74941;SDS011;63506;49.346;8.798;2023-08-06T11:15:06;0.38;;;0.30;;
74941;SDS011;63506;49.346;8.798;2023-08-06T11:17:34;1.75;;;0.40;;
74941;SDS011;63506;49.346;8.798;2023-08-06T11:20:02;1.40;;;0.50;;
74941;SDS011;63506;49.346;8.798;2023-08-06T11:22:34;1.23;;;0.50;;
74941;SDS011;63506;49.346;8.798;2023-08-06T11:25:03;0.88;;;0.75;;
74941;SDS011;63506;49.346;8.798;2023-08-06T11:27:31;0.65;;;0.60;;
74941;SDS011;63506;49.346;8.798;2023-08-06T11:30:00;1.38;;;0.47;;
74941;SDS011;63506;49.346;8.798;2023-08-06T11:32:29;0.85;;;0.70;;
74941;SDS011;63506;49.346;8.798;2023-08-06T11:34:58;1.02;;;0.43;;
74941;SDS011;63506;49.346;8.798;2023-08-06T11:37:26;0.95;;;0.65;;
74941;SDS011;63506;49.346;8.798;2023-08-06T11:39:54;2.38;;;0.55;;
74941;SDS011;63506;49.346;8.798;2023-08-06T11:42:22;1.60;;;0.73;;
74941;SDS011;63506;49.346;8.798;2023-08-06T11:44:51;0.90;;;0.77;;
74941;SDS011;63506;49.346;8.798;2023-08-06T11:47:18;1.35;;;0.80;;
74941;SDS011;63506;49.346;8.798;2023-08-06T11:49:49;1.42;;;0.80;;
74941;SDS011;63506;49.346;8.798;2023-08-06T11:52:19;3.30;;;1.20;;
74941;SDS011;63506;49.346;8.798;2023-08-06T11:55:00;1.33;;;0.60;;
74941;SDS011;63506;49.346;8.798;2023-08-06T11:57:29;1.80;;;1.00;;
74941;SDS011;63506;49.346;8.798;2023-08-06T12:00:01;1.98;;;1.40;;
74941;SDS011;63506;49.346;8.798;2023-08-06T12:02:41;2.42;;;1.60;;
74941;SDS011;63506;49.346;8.798;2023-08-06T12:05:12;2.15;;;1.25;;
74941;SDS011;63506;49.346;8.798;2023-08-06T12:07:41;1.88;;;1.20;;
74941;SDS011;63506;49.346;8.798;2023-08-06T12:10:10;1.10;;;0.90;;
74941;SDS011;63506;49.346;8.798;2023-08-06T12:12:38;1.23;;;0.95;;
74941;SDS011;63506;49.346;8.798;2023-08-06T12:15:08;5.45;;;1.30;;
74941;SDS011;63506;49.346;8.798;2023-08-06T12:17:38;2.70;;;1.15;;
74941;SDS011;63506;49.346;8.798;2023-08-06T12:20:10;1.83;;;0.90;;
74941;SDS011;63506;49.346;8.798;2023-08-06T12:22:41;1.45;;;0.90;;
74941;SDS011;63506;49.346;8.798;2023-08-06T12:25:12;1.67;;;1.38;;
74941;SDS011;63506;49.346;8.798;2023-08-06T12:27:40;1.50;;;1.10;;
74941;SDS011;63506;49.346;8.798;2023-08-06T12:30:08;2.03;;;1.02;;
74941;SDS011;63506;49.346;8.798;2023-08-06T12:32:37;1.85;;;1.48;;
74941;SDS011;63506;49.346;8.798;2023-08-06T12:35:05;2.00;;;1.27;;
74941;SDS011;63506;49.346;8.798;2023-08-06T12:37:34;2.33;;;1.25;;
74941;SDS011;63506;49.346;8.798;2023-08-06T12:40:02;1.73;;;1.02;;
74941;SDS011;63506;49.346;8.798;2023-08-06T12:42:31;1.08;;;0.95;;
74941;SDS011;63506;49.346;8.798;2023-08-06T12:45:01;1.58;;;1.15;;
74941;SDS011;63506;49.346;8.798;2023-08-06T12:47:31;3.67;;;1.38;;
74941;SDS011;63506;49.346;8.798;2023-08-06T12:50:01;2.30;;;1.50;;
74941;SDS011;63506;49.346;8.798;2023-08-06T12:52:28;2.10;;;1.25;;
74941;SDS011;63506;49.346;8.798;2023-08-06T12:54:55;1.88;;;1.40;;
74941;SDS011;63506;49.346;8.798;2023-08-06T12:57:25;2.30;;;1.73;;
74941;SDS011;63506;49.346;8.798;2023-08-06T12:59:59;4.18;;;1.58;;
74941;SDS011;63506;49.346;8.798;2023-08-06T13:02:26;2.65;;;1.60;;
74941;SDS011;63506;49.346;8.798;2023-08-06T13:05:00;1.50;;;1.20;;
74941;SDS011;63506;49.346;8.798;2023-08-06T13:07:31;2.13;;;1.30;;
74941;SDS011;63506;49.346;8.798;2023-08-06T13:09:58;1.95;;;1.40;;
74941;SDS011;63506;49.346;8.798;2023-08-06T13:12:28;1.17;;;1.08;;
74941;SDS011;63506;49.346;8.798;2023-08-06T13:14:55;1.38;;;1.00;;
74941;SDS011;63506;49.346;8.798;2023-08-06T13:17:29;1.52;;;1.42;;
74941;SDS011;63506;49.346;8.798;2023-08-06T13:20:01;1.73;;;1.02;;
74941;SDS011;63506;49.346;8.798;2023-08-06T13:22:31;5.47;;;1.45;;
74941;SDS011;63506;49.346;8.798;2023-08-06T13:24:59;4.20;;;1.35;;
74941;SDS011;63506;49.346;8.798;2023-08-06T13:27:28;2.03;;;1.70;;
74941;SDS011;63506;49.346;8.798;2023-08-06T13:29:56;1.00;;;0.95;;
74941;SDS011;63506;49.346;8.798;2023-08-06T13:32:23;1.90;;;1.42;;
74941;SDS011;63506;49.346;8.798;2023-08-06T13:34:52;2.05;;;1.35;;
74941;SDS011;63506;49.346;8.798;2023-08-06T13:37:21;1.98;;;1.65;;
74941;SDS011;63506;49.346;8.798;2023-08-06T13:39:49;1.42;;;1.20;;
74941;SDS011;63506;49.346;8.798;2023-08-06T13:42:16;2.22;;;1.20;;
74941;SDS011;63506;49.346;8.798;2023-08-06T13:44:43;1.65;;;1.00;;
74941;SDS011;63506;49.346;8.798;2023-08-06T13:47:13;1.40;;;0.98;;
74941;SDS011;63506;49.346;8.798;2023-08-06T13:49:42;1.45;;;0.90;;
74941;SDS011;63506;49.346;8.798;2023-08-06T13:52:11;1.48;;;0.93;;
74941;SDS011;63506;49.346;8.798;2023-08-06T13:54:38;3.22;;;1.58;;
74941;SDS011;63506;49.346;8.798;2023-08-06T13:57:06;1.33;;;1.02;;
74941;SDS011;63506;49.346;8.798;2023-08-06T13:59:33;1.67;;;1.20;;
74941;SDS011;63506;49.346;8.798;2023-08-06T14:02:01;2.85;;;1.63;;
74941;SDS011;63506;49.346;8.798;2023-08-06T14:04:30;1.20;;;1.02;;
74941;SDS011;63506;49.346;8.798;2023-08-06T14:06:58;1.80;;;1.08;;
74941;SDS011;63506;49.346;8.798;2023-08-06T14:09:26;1.67;;;1.20;;
74941;SDS011;63506;49.346;8.798;2023-08-06T14:11:56;1.55;;;1.20;;
74941;SDS011;63506;49.346;8.798;2023-08-06T14:14:23;2.00;;;1.15;;
74941;SDS011;63506;49.346;8.798;2023-08-06T14:16:53;2.10;;;1.35;;
74941;SDS011;63506;49.346;8.798;2023-08-06T14:19:21;2.15;;;1.38;;
74941;SDS011;63506;49.346;8.798;2023-08-06T14:21:48;3.05;;;1.33;;
74941;SDS011;63506;49.346;8.798;2023-08-06T14:24:16;1.42;;;0.98;;
74941;SDS011;63506;49.346;8.798;2023-08-06T14:26:44;1.25;;;0.80;;
74941;SDS011;63506;49.346;8.798;2023-08-06T14:29:12;1.05;;;0.75;;
74941;SDS011;63506;49.346;8.798;2023-08-06T14:31:40;1.65;;;1.02;;
74941;SDS011;63506;49.346;8.798;2023-08-06T14:34:07;1.38;;;0.80;;
74941;SDS011;63506;49.346;8.798;2023-08-06T14:36:35;1.42;;;0.70;;
74941;SDS011;63506;49.346;8.798;2023-08-06T14:39:02;1.20;;;0.88;;
74941;SDS011;63506;49.346;8.798;2023-08-06T14:41:30;3.38;;;0.90;;
74941;SDS011;63506;49.346;8.798;2023-08-06T14:43:58;1.13;;;0.77;;
74941;SDS011;63506;49.346;8.798;2023-08-06T14:46:26;0.80;;;0.70;;
74941;SDS011;63506;49.346;8.798;2023-08-06T14:48:53;1.55;;;1.08;;
74941;SDS011;63506;49.346;8.798;2023-08-06T14:51:21;1.08;;;0.77;;
74941;SDS011;63506;49.346;8.798;2023-08-06T14:53:51;2.50;;;1.10;;
74941;SDS011;63506;49.346;8.798;2023-08-06T14:56:18;1.48;;;1.10;;
74941;SDS011;63506;49.346;8.798;2023-08-06T14:58:46;1.98;;;0.80;;
74941;SDS011;63506;49.346;8.798;2023-08-06T15:01:15;2.50;;;1.17;;
74941;SDS011;63506;49.346;8.798;2023-08-06T15:03:42;4.40;;;1.00;;
74941;SDS011;63506;49.346;8.798;2023-08-06T15:06:10;5.47;;;1.10;;
74941;SDS011;63506;49.346;8.798;2023-08-06T15:08:37;1.48;;;0.82;;
74941;SDS011;63506;49.346;8.798;2023-08-06T15:11:07;4.20;;;0.85;;
74941;SDS011;63506;49.346;8.798;2023-08-06T15:13:35;2.67;;;0.98;;
74941;SDS011;63506;49.346;8.798;2023-08-06T15:16:02;3.13;;;0.88;;
74941;SDS011;63506;49.346;8.798;2023-08-06T15:18:31;7.35;;;1.30;;
74941;SDS011;63506;49.346;8.798;2023-08-06T15:21:01;1.45;;;1.20;;
74941;SDS011;63506;49.346;8.798;2023-08-06T15:23:28;3.08;;;1.48;;
74941;SDS011;63506;49.346;8.798;2023-08-06T15:25:58;3.03;;;1.35;;
74941;SDS011;63506;49.346;8.798;2023-08-06T15:28:25;2.05;;;1.25;;
74941;SDS011;63506;49.346;8.798;2023-08-06T15:30:52;1.38;;;0.82;;
74941;SDS011;63506;49.346;8.798;2023-08-06T15:33:26;1.95;;;1.35;;
74941;SDS011;63506;49.346;8.798;2023-08-06T15:35:54;1.90;;;1.20;;
74941;SDS011;63506;49.346;8.798;2023-08-06T15:38:22;1.60;;;1.42;;
74941;SDS011;63506;49.346;8.798;2023-08-06T15:40:49;2.33;;;1.33;;
74941;SDS011;63506;49.346;8.798;2023-08-06T15:43:19;2.17;;;1.20;;
74941;SDS011;63506;49.346;8.798;2023-08-06T15:45:46;2.45;;;1.50;;
74941;SDS011;63506;49.346;8.798;2023-08-06T15:48:16;2.47;;;1.40;;
74941;SDS011;63506;49.346;8.798;2023-08-06T15:50:44;2.40;;;1.00;;
74941;SDS011;63506;49.346;8.798;2023-08-06T15:53:14;1.73;;;1.63;;
74941;SDS011;63506;49.346;8.798;2023-08-06T15:55:41;2.88;;;1.88;;
74941;SDS011;63506;49.346;8.798;2023-08-06T15:58:08;1.95;;;1.20;;
74941;SDS011;63506;49.346;8.798;2023-08-06T16:00:38;1.50;;;1.05;;
74941;SDS011;63506;49.346;8.798;2023-08-06T16:03:05;1.48;;;1.00;;
74941;SDS011;63506;49.346;8.798;2023-08-06T16:05:35;2.78;;;0.95;;
74941;SDS011;63506;49.346;8.798;2023-08-06T16:08:04;1.55;;;1.08;;
74941;SDS011;63506;49.346;8.798;2023-08-06T16:10:36;1.95;;;1.10;;
74941;SDS011;63506;49.346;8.798;2023-08-06T16:13:05;1.10;;;0.90;;
74941;SDS011;63506;49.346;8.798;2023-08-06T16:15:35;2.10;;;0.90;;
74941;SDS011;63506;49.346;8.798;2023-08-06T16:18:02;1.20;;;1.02;;
74941;SDS011;63506;49.346;8.798;2023-08-06T16:20:32;1.63;;;1.10;;
74941;SDS011;63506;49.346;8.798;2023-08-06T16:23:02;0.73;;;0.70;;
74941;SDS011;63506;49.346;8.798;2023-08-06T16:25:32;1.70;;;0.90;;
74941;SDS011;63506;49.346;8.798;2023-08-06T16:28:08;0.95;;;0.80;;